createdAt,value
2018-11-03T00:01:14.335Z,7.03
2018-11-03T00:03:42.366Z,7.17
2018-11-03T00:06:10.695Z,8.13
2018-11-03T00:08:38.768Z,8.83
2018-11-03T00:11:06.812Z,7.87
2018-11-03T00:13:34.879Z,7.50
2018-11-03T00:16:02.921Z,7.23
2018-11-03T00:18:30.952Z,8.07
2018-11-03T00:20:59.343Z,7.03
2018-11-03T00:23:27.411Z,7.53
2018-11-03T00:25:55.566Z,10.13
2018-11-03T00:28:23.750Z,11.77
2018-11-03T00:30:52.516Z,9.07
2018-11-03T00:33:20.606Z,8.50
2018-11-03T00:35:48.725Z,7.87
2018-11-03T00:38:18.149Z,8.33
2018-11-03T00:40:46.164Z,8.23
2018-11-03T00:43:14.365Z,7.93
2018-11-03T00:45:42.377Z,8.43
2018-11-03T00:48:10.701Z,8.23
2018-11-03T00:50:39.666Z,8.63
2018-11-03T00:53:07.845Z,11.27
2018-11-03T00:55:35.902Z,9.07
2018-11-03T00:58:03.912Z,9.50
2018-11-03T01:00:32.302Z,7.93
2018-11-03T01:03:00.542Z,9.63
2018-11-03T01:05:28.650Z,9.03
2018-11-03T01:07:56.725Z,9.37
2018-11-03T01:10:25.163Z,8.90
2018-11-03T01:12:53.192Z,8.63
2018-11-03T01:15:21.295Z,8.90
2018-11-03T01:17:49.487Z,9.40
2018-11-03T01:20:18.123Z,9.60
2018-11-03T01:22:46.279Z,9.53
2018-11-03T01:25:14.372Z,10.07
2018-11-03T01:27:42.440Z,9.47
2018-11-03T01:30:13.683Z,8.63
2018-11-03T01:32:41.812Z,10.73
2018-11-03T01:35:10.064Z,9.17
2018-11-03T01:37:38.888Z,11.33
2018-11-03T01:40:07.642Z,10.10
2018-11-03T01:42:35.802Z,10.07
2018-11-03T01:45:03.997Z,9.87
2018-11-03T01:47:32.170Z,10.03
2018-11-03T01:50:00.432Z,10.37
2018-11-03T01:52:28.652Z,9.97
2018-11-03T01:54:56.672Z,10.97
2018-11-03T01:57:24.690Z,9.30
2018-11-03T01:59:52.762Z,10.07
2018-11-03T02:02:20.791Z,10.07
2018-11-03T02:04:48.870Z,10.00
2018-11-03T02:07:17.175Z,9.43
2018-11-03T02:09:45.218Z,10.50
2018-11-03T02:12:13.278Z,9.87
2018-11-03T02:14:41.388Z,10.67
2018-11-03T02:17:09.416Z,10.43
2018-11-03T02:19:39.146Z,10.50
2018-11-03T02:22:07.729Z,11.03
2018-11-03T02:24:35.812Z,10.47
2018-11-03T02:27:04.075Z,11.17
2018-11-03T02:29:32.111Z,9.83
2018-11-03T02:32:00.157Z,10.23
2018-11-03T02:34:28.282Z,11.27
2018-11-03T02:36:57.045Z,11.10
2018-11-03T02:39:25.242Z,10.47
2018-11-03T02:41:53.574Z,10.90
2018-11-03T02:44:21.699Z,11.50
2018-11-03T02:46:49.735Z,11.63
2018-11-03T02:49:17.794Z,10.30
2018-11-03T02:51:46.106Z,10.43
2018-11-03T02:54:14.135Z,11.27
2018-11-03T02:56:43.112Z,11.73
2018-11-03T02:59:11.215Z,12.37
2018-11-03T03:02:42.768Z,10.93
2018-11-03T03:05:11.242Z,11.17
2018-11-03T03:07:39.461Z,11.57
2018-11-03T03:10:08.890Z,11.23
2018-11-03T03:12:37.350Z,11.40
2018-11-03T03:15:06.455Z,12.17
2018-11-03T03:17:34.558Z,12.80
2018-11-03T03:20:02.598Z,12.13
2018-11-03T03:22:30.648Z,12.07
2018-11-03T03:24:58.886Z,12.83
2018-11-03T03:27:27.189Z,12.90
2018-11-03T03:29:55.274Z,12.27
2018-11-03T03:32:23.367Z,12.47
2018-11-03T03:34:51.503Z,12.97
2018-11-03T03:37:19.578Z,12.97
2018-11-03T03:39:47.772Z,12.03
2018-11-03T03:42:15.803Z,13.10
2018-11-03T03:44:43.923Z,12.20
2018-11-03T03:47:11.998Z,12.20
2018-11-03T03:49:40.043Z,13.40
2018-11-03T03:52:08.315Z,13.17
2018-11-03T03:54:36.610Z,11.60
2018-11-03T03:57:05.308Z,13.87
2018-11-03T03:59:33.365Z,12.57
2018-11-03T04:02:01.451Z,11.77
2018-11-03T04:04:29.602Z,13.50
2018-11-03T04:06:57.987Z,13.23
2018-11-03T04:09:26.111Z,12.33
2018-11-03T04:11:54.255Z,12.47
2018-11-03T04:14:22.318Z,11.90
2018-11-03T04:16:50.510Z,11.93
2018-11-03T04:19:18.551Z,12.97
2018-11-03T04:21:46.610Z,13.40
2018-11-03T04:24:14.730Z,13.03
2018-11-03T04:26:43.161Z,12.50
2018-11-03T04:29:11.384Z,13.17
2018-11-03T04:31:39.557Z,13.37
2018-11-03T04:34:07.598Z,11.77
2018-11-03T04:36:35.708Z,11.87
2018-11-03T04:39:04.733Z,12.70
2018-11-03T04:41:32.889Z,12.77
2018-11-03T04:44:01.117Z,12.53
2018-11-03T04:46:29.187Z,12.33
2018-11-03T04:49:01.951Z,12.43
2018-11-03T04:51:31.415Z,12.03
2018-11-03T04:54:00.178Z,12.70
2018-11-03T04:56:28.326Z,11.73
2018-11-03T04:58:57.141Z,11.20
2018-11-03T05:01:25.277Z,11.40
2018-11-03T05:03:53.400Z,11.87
2018-11-03T05:06:21.727Z,12.70
2018-11-03T05:08:49.805Z,12.27
2018-11-03T05:11:17.814Z,12.67
2018-11-03T05:13:45.894Z,13.23
2018-11-03T05:16:13.912Z,11.47
2018-11-03T05:18:42.127Z,12.67
2018-11-03T05:21:10.316Z,12.10
2018-11-03T05:23:38.227Z,12.80
2018-11-03T05:26:06.288Z,13.77
2018-11-03T05:28:34.874Z,12.50
2018-11-03T05:31:03.075Z,12.37
2018-11-03T05:33:31.103Z,12.00
2018-11-03T05:35:59.203Z,13.03
2018-11-03T05:38:27.263Z,13.30
2018-11-03T05:40:55.272Z,13.30
2018-11-03T05:43:23.411Z,13.50
2018-11-03T05:45:51.431Z,13.03
2018-11-03T05:48:19.516Z,13.07
2018-11-03T05:50:47.613Z,12.13
2018-11-03T05:53:15.699Z,13.77
2018-11-03T05:55:44.048Z,13.17
2018-11-03T05:58:12.086Z,13.47
2018-11-03T06:00:40.098Z,11.90
2018-11-03T06:03:08.135Z,11.93
2018-11-03T06:05:36.401Z,12.10
2018-11-03T06:08:04.426Z,13.10
2018-11-03T06:10:32.600Z,11.70
2018-11-03T06:13:00.894Z,12.83
2018-11-03T06:15:29.033Z,12.13
2018-11-03T06:17:57.142Z,13.03
2018-11-03T06:20:25.285Z,13.13
2018-11-03T06:22:53.425Z,13.73
2018-11-03T06:25:21.409Z,13.00
2018-11-03T06:27:49.767Z,11.63
2018-11-03T06:30:17.790Z,11.70
2018-11-03T06:32:45.815Z,13.57
2018-11-03T06:35:13.934Z,12.43
2018-11-03T06:37:41.899Z,13.07
2018-11-03T06:40:10.073Z,13.23
2018-11-03T06:42:38.752Z,12.10
2018-11-03T06:45:07.959Z,12.67
2018-11-03T06:47:36.171Z,14.03
2018-11-03T06:50:05.684Z,12.30
2018-11-03T06:52:33.852Z,12.90
2018-11-03T06:55:01.891Z,13.33
2018-11-03T06:57:30.154Z,13.27
2018-11-03T06:59:58.195Z,13.13
2018-11-03T07:02:26.331Z,13.00
2018-11-03T07:04:54.577Z,12.40
2018-11-03T07:07:22.868Z,12.67
2018-11-03T07:09:50.904Z,12.47
2018-11-03T07:12:19.164Z,13.60
2018-11-03T07:14:47.117Z,12.53
2018-11-03T07:17:15.350Z,13.63
2018-11-03T07:19:43.455Z,12.73
2018-11-03T07:22:11.889Z,13.33
2018-11-03T07:24:39.940Z,12.40
2018-11-03T07:27:08.136Z,14.10
2018-11-03T07:29:36.468Z,12.37
2018-11-03T07:32:04.496Z,11.50
2018-11-03T07:34:32.527Z,12.83
2018-11-03T07:37:01.146Z,12.90
2018-11-03T07:39:29.296Z,12.60
2018-11-03T07:41:57.308Z,12.90
2018-11-03T07:44:25.457Z,13.20
2018-11-03T07:47:56.590Z,12.67
2018-11-03T07:50:24.587Z,11.60
2018-11-03T07:52:52.644Z,13.03
2018-11-03T07:55:20.695Z,12.70
2018-11-03T07:57:49.208Z,12.47
2018-11-03T08:00:17.851Z,12.10
2018-11-03T08:02:45.831Z,12.15
2018-11-03T08:05:14.034Z,12.63
2018-11-03T08:07:42.082Z,12.23
2018-11-03T08:10:11.291Z,12.10
2018-11-03T08:12:39.429Z,12.70
2018-11-03T08:15:08.838Z,11.83
2018-11-03T08:17:37.142Z,12.45
2018-11-03T08:20:06.577Z,13.63
2018-11-03T08:22:34.619Z,12.15
2018-11-03T08:25:02.858Z,12.65
2018-11-03T08:27:31.061Z,12.53
2018-11-03T08:29:59.117Z,12.68
2018-11-03T08:32:27.323Z,12.68
2018-11-03T08:34:55.375Z,12.98
2018-11-03T08:37:23.428Z,12.07
2018-11-03T08:39:51.604Z,13.47
2018-11-03T08:42:19.804Z,13.18
2018-11-03T08:44:48.009Z,12.90
2018-11-03T08:47:16.474Z,12.23
2018-11-03T08:49:44.671Z,12.60
2018-11-03T08:52:12.707Z,12.98
2018-11-03T08:54:41.116Z,13.48
2018-11-03T08:57:09.365Z,14.87
2018-11-03T08:59:37.720Z,12.40
2018-11-03T09:02:05.896Z,13.15
2018-11-03T09:04:33.952Z,13.50
2018-11-03T09:07:02.050Z,14.07
2018-11-03T09:09:30.175Z,13.65
2018-11-03T09:11:58.209Z,13.50
2018-11-03T09:14:26.311Z,12.23
2018-11-03T09:16:54.375Z,13.25
2018-11-03T09:19:22.611Z,12.97
2018-11-03T09:21:50.758Z,13.03
2018-11-03T09:24:18.781Z,12.93
2018-11-03T09:26:53.391Z,13.38
2018-11-03T09:29:22.068Z,13.68
2018-11-03T09:31:50.173Z,14.05
2018-11-03T09:34:18.276Z,12.68
2018-11-03T09:36:46.410Z,13.62
2018-11-03T09:39:16.151Z,12.60
2018-11-03T09:41:44.226Z,13.65
2018-11-03T09:44:12.347Z,12.78
2018-11-03T09:46:40.404Z,12.65
2018-11-03T09:49:08.679Z,13.60
2018-11-03T09:51:36.739Z,12.78
2018-11-03T09:54:04.842Z,12.80
2018-11-03T09:56:32.935Z,13.90
2018-11-03T09:59:00.981Z,13.40
2018-11-03T10:01:29.269Z,12.95
2018-11-03T10:03:57.972Z,13.60
2018-11-03T10:06:26.020Z,13.95
2018-11-03T10:08:54.035Z,12.07
2018-11-03T10:11:22.354Z,14.30
2018-11-03T10:13:50.418Z,12.43
2018-11-03T10:16:18.495Z,12.65
2018-11-03T10:18:46.666Z,12.33
2018-11-03T10:21:14.743Z,10.83
2018-11-03T10:23:42.855Z,11.48
2018-11-03T10:26:11.082Z,14.55
2018-11-03T10:28:39.151Z,10.93
2018-11-03T10:31:07.194Z,10.05
2018-11-03T10:33:35.274Z,9.73
2018-11-03T10:36:03.259Z,10.15
2018-11-03T10:38:31.428Z,10.93
2018-11-03T10:40:59.618Z,9.40
2018-11-03T10:43:27.639Z,7.55
2018-11-03T10:45:55.680Z,8.70
2018-11-03T10:48:23.776Z,7.92
2018-11-03T10:50:51.999Z,8.63
2018-11-03T10:53:20.076Z,8.28
2018-11-03T10:55:48.150Z,8.18
2018-11-03T10:58:16.206Z,9.08
2018-11-03T11:00:49.532Z,8.17
2018-11-03T11:03:23.293Z,7.95
2018-11-03T11:05:56.944Z,6.85
2018-11-03T11:08:30.895Z,6.25
2018-11-03T11:11:04.844Z,6.22
2018-11-03T11:13:34.616Z,6.80
2018-11-03T11:16:02.708Z,7.15
2018-11-03T11:18:30.899Z,7.03
2018-11-03T11:20:58.941Z,7.95
2018-11-03T11:23:27.063Z,6.42
2018-11-03T11:25:55.112Z,6.67
2018-11-03T11:28:23.222Z,5.37
2018-11-03T11:30:51.382Z,5.17
2018-11-03T11:33:19.520Z,5.15
2018-11-03T11:35:47.840Z,5.58
2018-11-03T11:38:16.228Z,4.55
2018-11-03T11:40:44.551Z,6.17
2018-11-03T11:43:13.543Z,4.80
2018-11-03T11:45:41.740Z,5.50
2018-11-03T11:48:09.782Z,5.10
2018-11-03T11:50:38.669Z,4.47
2018-11-03T11:53:07.165Z,5.28
2018-11-03T11:55:35.199Z,4.65
2018-11-03T11:58:03.251Z,4.75
2018-11-03T12:00:31.661Z,4.65
2018-11-03T12:02:59.693Z,4.85
2018-11-03T12:05:28.238Z,4.90
2018-11-03T12:07:56.318Z,4.83
2018-11-03T12:10:24.381Z,4.75
2018-11-03T12:12:52.416Z,5.75
2018-11-03T12:15:20.871Z,4.60
2018-11-03T12:17:48.903Z,4.30
2018-11-03T12:20:16.942Z,4.87
2018-11-03T12:22:45.143Z,4.03
2018-11-03T12:25:13.198Z,4.45
2018-11-03T12:27:41.388Z,4.85
2018-11-03T12:30:12.355Z,4.42
2018-11-03T12:32:40.590Z,4.03
2018-11-03T12:35:08.883Z,4.80
2018-11-03T12:37:37.663Z,4.10
2018-11-03T12:40:07.859Z,4.50
2018-11-03T12:42:36.090Z,4.37
2018-11-03T12:45:04.596Z,4.22
2018-11-03T12:47:33.103Z,4.45
2018-11-03T12:50:02.044Z,4.72
2018-11-03T12:52:31.211Z,5.05
2018-11-03T12:55:00.234Z,4.02
2018-11-03T12:57:28.283Z,3.77
2018-11-03T12:59:56.339Z,3.92
2018-11-03T13:02:24.393Z,4.05
2018-11-03T13:04:52.812Z,5.55
2018-11-03T13:07:21.088Z,4.05
2018-11-03T13:09:49.592Z,4.58
2018-11-03T13:12:17.828Z,4.97
2018-11-03T13:14:45.743Z,4.80
2018-11-03T13:17:13.802Z,5.33
2018-11-03T13:19:41.817Z,4.25
2018-11-03T13:22:09.838Z,4.97
2018-11-03T13:24:37.890Z,5.65
2018-11-03T13:27:05.953Z,4.50
2018-11-03T13:29:34.011Z,4.47
2018-11-03T13:32:02.323Z,4.35
2018-11-03T13:34:30.334Z,4.53
2018-11-03T13:36:58.351Z,5.23
2018-11-03T13:39:26.409Z,4.72
2018-11-03T13:41:54.531Z,4.55
2018-11-03T13:44:22.544Z,4.40
2018-11-03T13:46:50.625Z,5.28
2018-11-03T13:49:18.656Z,4.58
2018-11-03T13:51:46.655Z,5.28
2018-11-03T13:54:14.962Z,4.60
2018-11-03T13:56:43.593Z,4.42
2018-11-03T13:59:11.637Z,4.97
2018-11-03T14:01:40.288Z,4.62
2018-11-03T14:04:09.041Z,5.08
2018-11-03T14:06:37.039Z,5.22
2018-11-03T14:09:06.777Z,4.42
2018-11-03T14:11:35.066Z,4.40
2018-11-03T14:14:03.764Z,4.15
2018-11-03T14:16:31.827Z,4.73
2018-11-03T14:18:59.836Z,4.00
2018-11-03T14:21:27.892Z,3.77
2018-11-03T14:23:56.035Z,4.42
2018-11-03T14:26:24.108Z,3.05
2018-11-03T14:28:52.168Z,3.60
2018-11-03T14:31:20.412Z,3.95
2018-11-03T14:33:48.496Z,3.05
2018-11-03T14:36:16.631Z,3.20
2018-11-03T14:38:45.128Z,3.92
2018-11-03T14:41:13.199Z,3.33
2018-11-03T14:43:41.303Z,3.70
2018-11-03T14:46:09.351Z,3.67
2018-11-03T14:48:37.403Z,4.40
2018-11-03T14:51:05.838Z,3.80
2018-11-03T14:53:34.168Z,3.77
2018-11-03T14:56:02.169Z,3.33
2018-11-03T14:58:30.224Z,4.20
2018-11-03T15:00:58.420Z,3.70
2018-11-03T15:03:26.447Z,4.40
2018-11-03T15:05:54.664Z,4.30
2018-11-03T15:08:22.859Z,4.00
2018-11-03T15:10:51.143Z,3.70
2018-11-03T15:13:19.206Z,4.40
2018-11-03T15:15:47.347Z,3.77
2018-11-03T15:18:15.611Z,3.93
2018-11-03T15:20:43.675Z,3.80
2018-11-03T15:23:11.760Z,4.07
2018-11-03T15:25:39.827Z,3.50
2018-11-03T15:28:07.974Z,3.10
2018-11-03T15:30:36.068Z,3.93
2018-11-03T15:33:04.120Z,3.40
2018-11-03T15:35:32.410Z,2.97
2018-11-03T15:38:00.929Z,2.90
2018-11-03T15:40:29.078Z,3.23
2018-11-03T15:42:57.141Z,3.13
2018-11-03T15:45:25.323Z,3.23
2018-11-03T15:47:53.400Z,3.23
2018-11-03T15:50:21.426Z,3.27
2018-11-03T15:52:49.463Z,3.33
2018-11-03T15:55:17.508Z,3.13
2018-11-03T15:57:45.606Z,4.20
2018-11-03T16:00:15.961Z,3.57
2018-11-03T16:02:44.258Z,3.40
2018-11-03T16:05:12.524Z,3.80
2018-11-03T16:07:40.579Z,3.47
2018-11-03T16:10:10.028Z,3.80
2018-11-03T16:12:38.653Z,3.93
2018-11-03T16:15:08.218Z,3.70
2018-11-03T16:17:36.266Z,3.27
2018-11-03T16:20:04.558Z,3.67
2018-11-03T16:22:33.299Z,4.00
2018-11-03T16:25:01.360Z,3.70
2018-11-03T16:27:29.394Z,3.87
2018-11-03T16:29:57.417Z,4.30
2018-11-03T16:32:25.994Z,3.97
2018-11-03T16:34:54.548Z,4.07
2018-11-03T16:37:22.640Z,4.47
2018-11-03T16:39:50.795Z,4.40
2018-11-03T16:42:19.756Z,5.13
2018-11-03T16:44:47.769Z,5.13
2018-11-03T16:47:15.920Z,5.63
2018-11-03T16:49:43.932Z,4.97
2018-11-03T16:52:11.952Z,5.40
2018-11-03T16:54:40.104Z,4.83
2018-11-03T16:57:08.174Z,5.90
2018-11-03T16:59:36.182Z,5.83
2018-11-03T17:02:04.543Z,5.87
2018-11-03T17:04:32.581Z,5.73
2018-11-03T17:07:01.442Z,5.60
2018-11-03T17:09:29.384Z,5.67
2018-11-03T17:11:57.614Z,5.43
2018-11-03T17:14:25.796Z,6.33
2018-11-03T17:16:53.826Z,5.57
2018-11-03T17:19:21.892Z,5.73
2018-11-03T17:21:49.935Z,6.63
2018-11-03T17:24:18.368Z,5.53
2018-11-03T17:26:46.483Z,5.97
2018-11-03T17:29:14.547Z,6.13
2018-11-03T17:31:42.609Z,6.57
2018-11-03T17:34:10.735Z,5.60
2018-11-03T17:36:39.050Z,5.67
2018-11-03T17:39:09.048Z,7.17
2018-11-03T17:41:37.148Z,6.97
2018-11-03T17:44:05.574Z,7.03
2018-11-03T17:46:33.604Z,6.33
2018-11-03T17:49:01.871Z,6.30
2018-11-03T17:51:29.951Z,6.20
2018-11-03T17:53:58.122Z,7.53
2018-11-03T17:56:26.179Z,7.27
2018-11-03T17:58:54.218Z,8.30
2018-11-03T18:01:22.434Z,7.23
2018-11-03T18:04:21.331Z,7.00
2018-11-03T18:06:49.431Z,7.00
2018-11-03T18:09:17.482Z,6.57
2018-11-03T18:11:45.502Z,6.73
2018-11-03T18:14:13.559Z,7.03
2018-11-03T18:16:42.408Z,7.47
2018-11-03T18:19:10.578Z,6.07
2018-11-03T18:21:38.865Z,6.23
2018-11-03T18:24:06.906Z,6.00
2018-11-03T18:26:35.417Z,7.13
2018-11-03T18:29:03.471Z,6.97
2018-11-03T18:31:31.480Z,8.27
2018-11-03T18:33:59.666Z,7.63
2018-11-03T18:36:27.926Z,8.27
2018-11-03T18:38:55.977Z,8.57
2018-11-03T18:41:24.130Z,9.23
2018-11-03T18:43:52.224Z,8.40
2018-11-03T18:46:20.517Z,7.43
2018-11-03T18:48:48.582Z,8.60
2018-11-03T18:51:16.744Z,9.20
2018-11-03T18:53:44.796Z,9.47
2018-11-03T18:56:12.851Z,8.43
2018-11-03T18:58:41.257Z,9.17
2018-11-03T19:01:09.310Z,9.03
2018-11-03T19:03:37.366Z,9.60
2018-11-03T19:06:05.975Z,8.13
2018-11-03T19:08:34.218Z,9.00
2018-11-03T19:11:02.333Z,9.33
2018-11-03T19:13:30.732Z,9.83
2018-11-03T19:15:58.984Z,8.23
2018-11-03T19:18:27.238Z,9.97
2018-11-03T19:20:55.287Z,8.73
2018-11-03T19:23:23.673Z,9.70
2018-11-03T19:25:51.681Z,8.30
2018-11-03T19:28:19.838Z,8.23
2018-11-03T19:30:47.910Z,9.63
2018-11-03T19:33:15.939Z,8.47
2018-11-03T19:35:44.056Z,8.23
2018-11-03T19:38:12.224Z,9.23
2018-11-03T19:40:40.402Z,8.93
2018-11-03T19:43:08.465Z,8.20
2018-11-03T19:45:36.484Z,9.47
2018-11-03T19:48:04.707Z,9.17
2018-11-03T19:50:33.035Z,9.17
2018-11-03T19:53:01.341Z,9.57
2018-11-03T19:55:29.371Z,10.47
2018-11-03T19:57:57.527Z,9.03
2018-11-03T20:00:27.968Z,10.67
2018-11-03T20:02:56.003Z,11.07
2018-11-03T20:05:24.091Z,9.70
2018-11-03T20:07:52.125Z,10.13
2018-11-03T20:10:20.569Z,10.10
2018-11-03T20:12:48.596Z,10.73
2018-11-03T20:15:16.679Z,10.73
2018-11-03T20:17:44.729Z,10.40
2018-11-03T20:20:13.955Z,10.10
2018-11-03T20:22:41.982Z,9.97
2018-11-03T20:25:11.320Z,9.37
2018-11-03T20:27:39.380Z,11.43
2018-11-03T20:30:09.603Z,10.10
2018-11-03T20:32:37.680Z,11.17
2018-11-03T20:35:05.787Z,11.87
2018-11-03T20:37:34.060Z,10.77
2018-11-03T20:40:02.217Z,10.87
2018-11-03T20:42:30.587Z,9.87
2018-11-03T20:44:58.652Z,10.23
2018-11-03T20:47:26.710Z,11.30
2018-11-03T20:49:54.824Z,9.80
2018-11-03T20:52:22.871Z,10.80
2018-11-03T20:54:50.971Z,10.23
2018-11-03T20:57:18.980Z,9.73
2018-11-03T20:59:47.639Z,9.97
2018-11-03T21:02:15.663Z,9.50
2018-11-03T21:04:43.835Z,9.40
2018-11-03T21:07:11.923Z,11.67
2018-11-03T21:09:39.967Z,10.27
2018-11-03T21:12:08.036Z,10.70
2018-11-03T21:14:36.138Z,9.80
2018-11-03T21:17:04.146Z,10.10
2018-11-03T21:19:32.163Z,10.03
2018-11-03T21:22:01.106Z,8.77
2018-11-03T21:24:29.135Z,10.13
2018-11-03T21:26:57.431Z,9.07
2018-11-03T21:29:25.688Z,10.47
2018-11-03T21:31:53.768Z,10.70
2018-11-03T21:34:21.779Z,9.90
2018-11-03T21:36:49.958Z,11.30
2018-11-03T21:39:18.007Z,10.87
2018-11-03T21:41:46.062Z,10.30
2018-11-03T21:44:14.130Z,9.53
2018-11-03T21:46:42.258Z,10.70
2018-11-03T21:49:10.206Z,9.93
2018-11-03T21:51:38.733Z,9.80
2018-11-03T21:54:07.592Z,10.63
2018-11-03T21:56:35.713Z,9.37
2018-11-03T21:59:03.871Z,9.00
2018-11-03T22:01:31.904Z,9.47
2018-11-03T22:03:59.998Z,9.20
2018-11-03T22:06:28.130Z,9.27
2018-11-03T22:08:56.131Z,9.37
2018-11-03T22:11:24.155Z,8.55
2018-11-03T22:13:52.279Z,9.57
2018-11-03T22:16:20.275Z,9.67
2018-11-03T22:18:48.319Z,8.93
2018-11-03T22:21:16.376Z,11.23
2018-11-03T22:23:44.670Z,10.33
2018-11-03T22:26:13.051Z,8.70
2018-11-03T22:28:41.539Z,10.50
2018-11-03T22:31:09.552Z,9.93
2018-11-03T22:33:37.666Z,10.23
2018-11-03T22:36:05.888Z,8.90
2018-11-03T22:38:34.047Z,10.33
2018-11-03T22:41:02.118Z,10.17
2018-11-03T22:43:30.204Z,10.23
2018-11-03T22:45:58.358Z,10.90
2018-11-03T22:48:26.399Z,11.50
2018-11-03T22:50:54.490Z,9.97
2018-11-03T22:53:22.558Z,10.83
2018-11-03T22:55:50.671Z,10.60
2018-11-03T22:58:18.857Z,10.27
2018-11-03T23:00:52.306Z,9.73
2018-11-03T23:03:20.370Z,11.20
2018-11-03T23:05:48.430Z,9.13
2018-11-03T23:08:16.447Z,9.17
2018-11-03T23:10:44.815Z,10.20
2018-11-03T23:13:12.947Z,10.00
2018-11-03T23:15:40.904Z,8.97
2018-11-03T23:18:09.288Z,8.90
2018-11-03T23:20:37.292Z,10.70
2018-11-03T23:23:05.485Z,10.83
2018-11-03T23:25:33.693Z,9.97
2018-11-03T23:28:01.728Z,9.70
2018-11-03T23:30:29.739Z,10.07
2018-11-03T23:32:58.045Z,9.50
2018-11-03T23:35:26.227Z,8.67
2018-11-03T23:37:54.245Z,9.37
2018-11-03T23:40:22.613Z,8.93
2018-11-03T23:42:50.612Z,9.70
2018-11-03T23:45:18.658Z,9.73
2018-11-03T23:47:47.048Z,10.40
2018-11-03T23:50:15.087Z,10.97
2018-11-03T23:52:46.444Z,10.13
2018-11-03T23:55:15.484Z,9.60
2018-11-03T23:57:43.525Z,10.00
